sensor_id;sensor_type;location;lat;lon;timestamp;temperature;humidity
26505;DHT22;19493;48.042;7.584;2023-04-03T00:00:41;5.80;99.90
26505;DHT22;19493;48.042;7.584;2023-04-03T00:03:07;5.70;99.90
26505;DHT22;19493;48.042;7.584;2023-04-03T00:05:32;5.70;99.90
26505;DHT22;19493;48.042;7.584;2023-04-03T00:07:58;5.70;99.90
26505;DHT22;19493;48.042;7.584;2023-04-03T00:10:23;5.70;99.90
26505;DHT22;19493;48.042;7.584;2023-04-03T00:12:49;5.60;99.90
26505;DHT22;19493;48.042;7.584;2023-04-03T00:15:15;5.60;99.90
26505;DHT22;19493;48.042;7.584;2023-04-03T00:17:41;5.50;99.90
26505;DHT22;19493;48.042;7.584;2023-04-03T00:20:07;5.50;99.90
26505;DHT22;19493;48.042;7.584;2023-04-03T00:22:33;5.40;99.90
26505;DHT22;19493;48.042;7.584;2023-04-03T00:24:59;5.40;99.90
26505;DHT22;19493;48.042;7.584;2023-04-03T00:27:24;5.40;99.90
26505;DHT22;19493;48.042;7.584;2023-04-03T00:29:50;5.40;99.90
26505;DHT22;19493;48.042;7.584;2023-04-03T00:32:15;5.30;99.90
26505;DHT22;19493;48.042;7.584;2023-04-03T00:34:41;5.30;99.90
26505;DHT22;19493;48.042;7.584;2023-04-03T00:37:07;5.30;99.90
26505;DHT22;19493;48.042;7.584;2023-04-03T00:39:32;5.30;99.90
26505;DHT22;19493;48.042;7.584;2023-04-03T00:41:58;5.30;99.90
26505;DHT22;19493;48.042;7.584;2023-04-03T00:46:58;5.20;99.90
26505;DHT22;19493;48.042;7.584;2023-04-03T00:49:24;5.20;99.90
26505;DHT22;19493;48.042;7.584;2023-04-03T00:51:50;5.20;99.90
26505;DHT22;19493;48.042;7.584;2023-04-03T00:54:16;5.20;99.90
26505;DHT22;19493;48.042;7.584;2023-04-03T00:56:43;5.10;99.90
26505;DHT22;19493;48.042;7.584;2023-04-03T00:59:15;5.10;99.90
26505;DHT22;19493;48.042;7.584;2023-04-03T01:01:43;5.00;99.90
26505;DHT22;19493;48.042;7.584;2023-04-03T01:06:53;5.00;99.90
26505;DHT22;19493;48.042;7.584;2023-04-03T01:09:21;5.00;99.90
26505;DHT22;19493;48.042;7.584;2023-04-03T01:11:47;5.00;99.90
26505;DHT22;19493;48.042;7.584;2023-04-03T01:14:12;5.00;99.90
26505;DHT22;19493;48.042;7.584;2023-04-03T01:16:38;5.00;99.90
26505;DHT22;19493;48.042;7.584;2023-04-03T01:19:08;5.00;99.90
26505;DHT22;19493;48.042;7.584;2023-04-03T01:21:56;5.00;99.90
26505;DHT22;19493;48.042;7.584;2023-04-03T01:24:34;5.00;99.90
26505;DHT22;19493;48.042;7.584;2023-04-03T01:27:01;5.10;99.90
26505;DHT22;19493;48.042;7.584;2023-04-03T01:29:27;5.00;99.90
26505;DHT22;19493;48.042;7.584;2023-04-03T01:31:58;5.10;99.90
26505;DHT22;19493;48.042;7.584;2023-04-03T01:34:25;5.10;99.90
26505;DHT22;19493;48.042;7.584;2023-04-03T01:36:51;5.10;99.90
26505;DHT22;19493;48.042;7.584;2023-04-03T01:39:17;5.10;99.90
26505;DHT22;19493;48.042;7.584;2023-04-03T01:41:43;5.00;99.90
26505;DHT22;19493;48.042;7.584;2023-04-03T01:44:09;5.00;99.90
26505;DHT22;19493;48.042;7.584;2023-04-03T01:46:35;5.00;99.90
26505;DHT22;19493;48.042;7.584;2023-04-03T01:49:01;5.00;99.90
26505;DHT22;19493;48.042;7.584;2023-04-03T01:51:26;5.00;99.90
26505;DHT22;19493;48.042;7.584;2023-04-03T01:53:52;5.00;99.90
26505;DHT22;19493;48.042;7.584;2023-04-03T01:56:17;5.00;99.90
26505;DHT22;19493;48.042;7.584;2023-04-03T01:58:43;5.00;99.90
26505;DHT22;19493;48.042;7.584;2023-04-03T02:01:08;5.00;99.90
26505;DHT22;19493;48.042;7.584;2023-04-03T02:03:34;4.90;99.90
26505;DHT22;19493;48.042;7.584;2023-04-03T02:06:00;5.00;99.90
26505;DHT22;19493;48.042;7.584;2023-04-03T02:08:25;4.90;99.90
26505;DHT22;19493;48.042;7.584;2023-04-03T02:10:51;4.90;99.90
26505;DHT22;19493;48.042;7.584;2023-04-03T02:13:17;4.90;99.90
26505;DHT22;19493;48.042;7.584;2023-04-03T02:15:43;4.90;99.90
26505;DHT22;19493;48.042;7.584;2023-04-03T02:18:09;4.90;99.90
26505;DHT22;19493;48.042;7.584;2023-04-03T02:20:35;4.90;99.90
26505;DHT22;19493;48.042;7.584;2023-04-03T02:23:00;4.90;99.90
26505;DHT22;19493;48.042;7.584;2023-04-03T02:25:26;4.90;99.90
26505;DHT22;19493;48.042;7.584;2023-04-03T02:27:52;4.80;99.90
26505;DHT22;19493;48.042;7.584;2023-04-03T02:30:17;4.80;99.90
26505;DHT22;19493;48.042;7.584;2023-04-03T02:32:44;4.80;99.90
26505;DHT22;19493;48.042;7.584;2023-04-03T02:35:10;4.80;99.90
26505;DHT22;19493;48.042;7.584;2023-04-03T02:37:36;4.80;99.90
26505;DHT22;19493;48.042;7.584;2023-04-03T02:40:02;4.80;99.90
26505;DHT22;19493;48.042;7.584;2023-04-03T02:42:29;4.70;99.90
26505;DHT22;19493;48.042;7.584;2023-04-03T02:44:55;4.70;99.90
26505;DHT22;19493;48.042;7.584;2023-04-03T02:47:20;4.70;99.90
26505;DHT22;19493;48.042;7.584;2023-04-03T02:49:46;4.70;99.90
26505;DHT22;19493;48.042;7.584;2023-04-03T02:52:15;4.70;99.90
26505;DHT22;19493;48.042;7.584;2023-04-03T02:54:40;4.70;99.90
26505;DHT22;19493;48.042;7.584;2023-04-03T02:57:06;4.70;99.90
26505;DHT22;19493;48.042;7.584;2023-04-03T02:59:36;4.70;99.90
26505;DHT22;19493;48.042;7.584;2023-04-03T03:02:02;4.70;99.90
26505;DHT22;19493;48.042;7.584;2023-04-03T03:04:28;4.70;99.90
26505;DHT22;19493;48.042;7.584;2023-04-03T03:06:53;4.70;99.90
26505;DHT22;19493;48.042;7.584;2023-04-03T03:09:19;4.70;99.90
26505;DHT22;19493;48.042;7.584;2023-04-03T03:11:45;4.70;99.90
26505;DHT22;19493;48.042;7.584;2023-04-03T03:14:10;4.70;99.90
26505;DHT22;19493;48.042;7.584;2023-04-03T03:16:36;4.70;99.90
26505;DHT22;19493;48.042;7.584;2023-04-03T03:19:02;4.70;99.90
26505;DHT22;19493;48.042;7.584;2023-04-03T03:21:27;4.70;99.90
26505;DHT22;19493;48.042;7.584;2023-04-03T03:23:53;4.70;99.90
26505;DHT22;19493;48.042;7.584;2023-04-03T03:26:18;4.60;99.90
26505;DHT22;19493;48.042;7.584;2023-04-03T03:28:44;4.60;99.90
26505;DHT22;19493;48.042;7.584;2023-04-03T03:31:10;4.70;99.90
26505;DHT22;19493;48.042;7.584;2023-04-03T03:33:37;4.70;99.90
26505;DHT22;19493;48.042;7.584;2023-04-03T03:36:03;4.70;99.90
26505;DHT22;19493;48.042;7.584;2023-04-03T03:38:28;4.70;99.90
26505;DHT22;19493;48.042;7.584;2023-04-03T03:40:54;4.70;99.90
26505;DHT22;19493;48.042;7.584;2023-04-03T03:43:20;4.70;99.90
26505;DHT22;19493;48.042;7.584;2023-04-03T03:45:50;4.70;99.90
26505;DHT22;19493;48.042;7.584;2023-04-03T03:48:16;4.60;99.90
26505;DHT22;19493;48.042;7.584;2023-04-03T03:50:41;4.70;99.90
26505;DHT22;19493;48.042;7.584;2023-04-03T03:53:07;4.70;99.90
26505;DHT22;19493;48.042;7.584;2023-04-03T03:55:33;4.70;99.90
26505;DHT22;19493;48.042;7.584;2023-04-03T03:57:58;4.70;99.90
26505;DHT22;19493;48.042;7.584;2023-04-03T04:00:25;4.70;99.90
26505;DHT22;19493;48.042;7.584;2023-04-03T04:02:50;4.70;99.90
26505;DHT22;19493;48.042;7.584;2023-04-03T04:05:16;4.70;99.90
26505;DHT22;19493;48.042;7.584;2023-04-03T04:07:42;4.70;99.90
26505;DHT22;19493;48.042;7.584;2023-04-03T04:10:08;4.70;99.90
26505;DHT22;19493;48.042;7.584;2023-04-03T04:12:33;4.70;99.90
26505;DHT22;19493;48.042;7.584;2023-04-03T04:15:01;4.70;99.90
26505;DHT22;19493;48.042;7.584;2023-04-03T04:17:26;4.70;99.90
26505;DHT22;19493;48.042;7.584;2023-04-03T04:19:52;4.70;99.90
26505;DHT22;19493;48.042;7.584;2023-04-03T04:22:17;4.70;99.90
26505;DHT22;19493;48.042;7.584;2023-04-03T04:24:43;4.70;99.90
26505;DHT22;19493;48.042;7.584;2023-04-03T04:27:09;4.70;99.90
26505;DHT22;19493;48.042;7.584;2023-04-03T04:29:34;4.70;99.90
26505;DHT22;19493;48.042;7.584;2023-04-03T04:32:03;4.70;99.90
26505;DHT22;19493;48.042;7.584;2023-04-03T04:34:29;4.70;99.90
26505;DHT22;19493;48.042;7.584;2023-04-03T04:36:55;4.70;99.90
26505;DHT22;19493;48.042;7.584;2023-04-03T04:39:20;4.70;99.90
26505;DHT22;19493;48.042;7.584;2023-04-03T04:41:46;4.70;99.90
26505;DHT22;19493;48.042;7.584;2023-04-03T04:44:11;4.70;99.90
26505;DHT22;19493;48.042;7.584;2023-04-03T04:46:37;4.70;99.90
26505;DHT22;19493;48.042;7.584;2023-04-03T04:49:02;4.70;99.90
26505;DHT22;19493;48.042;7.584;2023-04-03T04:51:28;4.70;99.90
26505;DHT22;19493;48.042;7.584;2023-04-03T04:53:54;4.70;99.90
26505;DHT22;19493;48.042;7.584;2023-04-03T04:56:19;4.70;99.90
26505;DHT22;19493;48.042;7.584;2023-04-03T04:58:46;4.70;99.90
26505;DHT22;19493;48.042;7.584;2023-04-03T05:01:11;4.60;99.90
26505;DHT22;19493;48.042;7.584;2023-04-03T05:03:37;4.70;99.90
26505;DHT22;19493;48.042;7.584;2023-04-03T05:06:03;4.70;99.90
26505;DHT22;19493;48.042;7.584;2023-04-03T05:08:28;4.70;99.90
26505;DHT22;19493;48.042;7.584;2023-04-03T05:10:54;4.70;99.90
26505;DHT22;19493;48.042;7.584;2023-04-03T05:13:20;4.60;99.90
26505;DHT22;19493;48.042;7.584;2023-04-03T05:15:46;4.70;99.90
26505;DHT22;19493;48.042;7.584;2023-04-03T05:18:12;4.70;99.90
26505;DHT22;19493;48.042;7.584;2023-04-03T05:20:38;4.60;99.90
26505;DHT22;19493;48.042;7.584;2023-04-03T05:23:04;4.60;99.90
26505;DHT22;19493;48.042;7.584;2023-04-03T05:25:29;4.60;99.90
26505;DHT22;19493;48.042;7.584;2023-04-03T05:27:55;4.60;99.90
26505;DHT22;19493;48.042;7.584;2023-04-03T05:30:21;4.60;99.90
26505;DHT22;19493;48.042;7.584;2023-04-03T05:32:47;4.60;99.90
26505;DHT22;19493;48.042;7.584;2023-04-03T05:35:12;4.60;99.90
26505;DHT22;19493;48.042;7.584;2023-04-03T05:37:38;4.60;99.90
26505;DHT22;19493;48.042;7.584;2023-04-03T05:40:05;4.60;99.90
26505;DHT22;19493;48.042;7.584;2023-04-03T05:42:30;4.60;99.90
26505;DHT22;19493;48.042;7.584;2023-04-03T05:44:56;4.60;99.90
26505;DHT22;19493;48.042;7.584;2023-04-03T05:47:22;4.60;99.90
26505;DHT22;19493;48.042;7.584;2023-04-03T05:49:47;4.70;99.90
26505;DHT22;19493;48.042;7.584;2023-04-03T05:52:25;4.70;99.90
26505;DHT22;19493;48.042;7.584;2023-04-03T05:54:51;4.70;99.90
26505;DHT22;19493;48.042;7.584;2023-04-03T05:57:17;4.70;99.90
26505;DHT22;19493;48.042;7.584;2023-04-03T05:59:44;4.80;99.90
26505;DHT22;19493;48.042;7.584;2023-04-03T06:02:15;4.80;99.90
26505;DHT22;19493;48.042;7.584;2023-04-03T06:04:41;4.80;99.90
26505;DHT22;19493;48.042;7.584;2023-04-03T06:07:11;4.90;99.90
26505;DHT22;19493;48.042;7.584;2023-04-03T06:09:38;4.90;99.90
26505;DHT22;19493;48.042;7.584;2023-04-03T06:12:04;5.00;99.90
26505;DHT22;19493;48.042;7.584;2023-04-03T06:14:30;5.00;99.90
26505;DHT22;19493;48.042;7.584;2023-04-03T06:16:56;5.10;99.90
26505;DHT22;19493;48.042;7.584;2023-04-03T06:19:22;5.10;99.90
26505;DHT22;19493;48.042;7.584;2023-04-03T06:21:48;5.20;99.90
26505;DHT22;19493;48.042;7.584;2023-04-03T06:24:16;5.20;99.90
26505;DHT22;19493;48.042;7.584;2023-04-03T06:26:42;5.30;99.90
26505;DHT22;19493;48.042;7.584;2023-04-03T06:29:08;5.40;99.90
26505;DHT22;19493;48.042;7.584;2023-04-03T06:31:34;5.40;99.90
26505;DHT22;19493;48.042;7.584;2023-04-03T06:34:00;5.40;99.90
26505;DHT22;19493;48.042;7.584;2023-04-03T06:36:26;5.50;99.90
26505;DHT22;19493;48.042;7.584;2023-04-03T06:38:52;5.50;99.90
26505;DHT22;19493;48.042;7.584;2023-04-03T06:41:17;5.60;99.90
26505;DHT22;19493;48.042;7.584;2023-04-03T06:43:44;5.60;99.90
26505;DHT22;19493;48.042;7.584;2023-04-03T06:46:16;5.50;99.90
26505;DHT22;19493;48.042;7.584;2023-04-03T06:48:42;5.60;99.90
26505;DHT22;19493;48.042;7.584;2023-04-03T06:51:17;5.60;99.90
26505;DHT22;19493;48.042;7.584;2023-04-03T06:53:43;5.60;99.90
26505;DHT22;19493;48.042;7.584;2023-04-03T06:56:09;5.70;99.90
26505;DHT22;19493;48.042;7.584;2023-04-03T06:58:35;5.70;99.90
26505;DHT22;19493;48.042;7.584;2023-04-03T07:01:01;5.80;99.90
26505;DHT22;19493;48.042;7.584;2023-04-03T07:03:27;5.80;99.90
26505;DHT22;19493;48.042;7.584;2023-04-03T07:05:53;5.90;99.90
26505;DHT22;19493;48.042;7.584;2023-04-03T07:08:18;5.90;99.90
26505;DHT22;19493;48.042;7.584;2023-04-03T07:10:44;5.90;99.90
26505;DHT22;19493;48.042;7.584;2023-04-03T07:13:09;5.90;99.90
26505;DHT22;19493;48.042;7.584;2023-04-03T07:15:38;6.00;99.90
26505;DHT22;19493;48.042;7.584;2023-04-03T07:18:03;6.10;99.90
26505;DHT22;19493;48.042;7.584;2023-04-03T07:20:31;6.30;99.90
26505;DHT22;19493;48.042;7.584;2023-04-03T07:22:56;6.30;99.90
26505;DHT22;19493;48.042;7.584;2023-04-03T07:25:22;6.40;99.90
26505;DHT22;19493;48.042;7.584;2023-04-03T07:27:47;6.40;99.90
26505;DHT22;19493;48.042;7.584;2023-04-03T07:30:14;6.50;99.90
26505;DHT22;19493;48.042;7.584;2023-04-03T07:32:40;6.70;99.90
26505;DHT22;19493;48.042;7.584;2023-04-03T07:35:06;6.80;99.90
26505;DHT22;19493;48.042;7.584;2023-04-03T07:37:32;6.90;99.90
26505;DHT22;19493;48.042;7.584;2023-04-03T07:39:57;7.00;99.90
26505;DHT22;19493;48.042;7.584;2023-04-03T07:42:24;7.20;99.90
26505;DHT22;19493;48.042;7.584;2023-04-03T07:44:53;7.20;99.90
26505;DHT22;19493;48.042;7.584;2023-04-03T07:47:18;7.20;99.90
26505;DHT22;19493;48.042;7.584;2023-04-03T07:49:45;7.20;99.90
26505;DHT22;19493;48.042;7.584;2023-04-03T07:52:11;7.20;99.90
26505;DHT22;19493;48.042;7.584;2023-04-03T07:54:37;7.20;99.90
26505;DHT22;19493;48.042;7.584;2023-04-03T07:57:03;7.10;99.90
26505;DHT22;19493;48.042;7.584;2023-04-03T07:59:28;7.30;99.90
26505;DHT22;19493;48.042;7.584;2023-04-03T08:01:54;7.40;99.90
26505;DHT22;19493;48.042;7.584;2023-04-03T08:04:19;7.50;99.90
26505;DHT22;19493;48.042;7.584;2023-04-03T08:06:45;7.40;99.90
26505;DHT22;19493;48.042;7.584;2023-04-03T08:09:10;7.40;99.90
26505;DHT22;19493;48.042;7.584;2023-04-03T08:11:39;7.60;99.90
26505;DHT22;19493;48.042;7.584;2023-04-03T08:14:04;7.90;99.90
26505;DHT22;19493;48.042;7.584;2023-04-03T08:16:30;8.00;99.90
26505;DHT22;19493;48.042;7.584;2023-04-03T08:18:55;8.20;99.90
26505;DHT22;19493;48.042;7.584;2023-04-03T08:21:21;8.40;99.90
26505;DHT22;19493;48.042;7.584;2023-04-03T08:23:49;8.40;99.90
26505;DHT22;19493;48.042;7.584;2023-04-03T08:26:18;8.40;99.90
26505;DHT22;19493;48.042;7.584;2023-04-03T08:28:43;8.30;99.90
26505;DHT22;19493;48.042;7.584;2023-04-03T08:31:12;8.30;99.90
26505;DHT22;19493;48.042;7.584;2023-04-03T08:33:39;8.30;99.90
26505;DHT22;19493;48.042;7.584;2023-04-03T08:36:20;8.40;99.90
26505;DHT22;19493;48.042;7.584;2023-04-03T08:38:47;8.50;99.90
26505;DHT22;19493;48.042;7.584;2023-04-03T08:43:56;9.40;99.90
26505;DHT22;19493;48.042;7.584;2023-04-03T08:46:27;9.80;99.90
26505;DHT22;19493;48.042;7.584;2023-04-03T08:48:58;9.90;99.90
26505;DHT22;19493;48.042;7.584;2023-04-03T08:51:26;10.10;99.90
26505;DHT22;19493;48.042;7.584;2023-04-03T08:54:00;9.90;99.90
26505;DHT22;19493;48.042;7.584;2023-04-03T08:56:29;9.80;99.90
26505;DHT22;19493;48.042;7.584;2023-04-03T08:59:05;9.90;99.90
26505;DHT22;19493;48.042;7.584;2023-04-03T09:04:01;10.40;99.30
26505;DHT22;19493;48.042;7.584;2023-04-03T09:06:31;10.40;98.60
26505;DHT22;19493;48.042;7.584;2023-04-03T09:14:46;9.70;98.50
26505;DHT22;19493;48.042;7.584;2023-04-03T09:17:41;9.60;98.10
26505;DHT22;19493;48.042;7.584;2023-04-03T09:20:23;9.60;98.30
26505;DHT22;19493;48.042;7.584;2023-04-03T09:22:51;9.50;96.90
26505;DHT22;19493;48.042;7.584;2023-04-03T09:25:23;11.40;96.10
26505;DHT22;19493;48.042;7.584;2023-04-03T09:27:51;13.90;91.30
26505;DHT22;19493;48.042;7.584;2023-04-03T09:30:23;15.00;81.70
26505;DHT22;19493;48.042;7.584;2023-04-03T09:32:51;14.30;75.80
26505;DHT22;19493;48.042;7.584;2023-04-03T09:37:51;15.60;68.60
26505;DHT22;19493;48.042;7.584;2023-04-03T09:42:53;13.60;69.70
26505;DHT22;19493;48.042;7.584;2023-04-03T09:45:26;12.80;71.30
26505;DHT22;19493;48.042;7.584;2023-04-03T09:51:00;10.80;75.90
26505;DHT22;19493;48.042;7.584;2023-04-03T09:53:36;10.40;79.60
26505;DHT22;19493;48.042;7.584;2023-04-03T09:56:26;10.60;81.00
26505;DHT22;19493;48.042;7.584;2023-04-03T10:01:39;10.60;78.00
26505;DHT22;19493;48.042;7.584;2023-04-03T10:04:18;10.50;78.30
26505;DHT22;19493;48.042;7.584;2023-04-03T10:06:46;10.70;80.00
26505;DHT22;19493;48.042;7.584;2023-04-03T10:09:17;10.70;78.90
26505;DHT22;19493;48.042;7.584;2023-04-03T10:12:04;10.80;79.00
26505;DHT22;19493;48.042;7.584;2023-04-03T10:14:32;10.50;76.50
26505;DHT22;19493;48.042;7.584;2023-04-03T10:17:26;10.70;77.50
26505;DHT22;19493;48.042;7.584;2023-04-03T10:20:07;11.00;78.50
26505;DHT22;19493;48.042;7.584;2023-04-03T10:23:00;11.40;76.80
26505;DHT22;19493;48.042;7.584;2023-04-03T10:25:38;11.90;74.90
26505;DHT22;19493;48.042;7.584;2023-04-03T10:28:19;12.00;72.90
26505;DHT22;19493;48.042;7.584;2023-04-03T10:30:54;12.00;71.40
26505;DHT22;19493;48.042;7.584;2023-04-03T10:33:39;12.80;70.70
26505;DHT22;19493;48.042;7.584;2023-04-03T10:36:22;13.40;72.20
26505;DHT22;19493;48.042;7.584;2023-04-03T10:39:19;13.70;70.00
26505;DHT22;19493;48.042;7.584;2023-04-03T10:49:43;17.10;54.70
26505;DHT22;19493;48.042;7.584;2023-04-03T10:52:33;17.90;54.40
26505;DHT22;19493;48.042;7.584;2023-04-03T10:57:54;17.70;51.30
26505;DHT22;19493;48.042;7.584;2023-04-03T11:00:26;17.00;50.50
26505;DHT22;19493;48.042;7.584;2023-04-03T11:02:58;17.20;51.00
26505;DHT22;19493;48.042;7.584;2023-04-03T11:05:37;16.70;50.00
26505;DHT22;19493;48.042;7.584;2023-04-03T11:11:05;15.20;53.60
26505;DHT22;19493;48.042;7.584;2023-04-03T11:13:43;14.60;54.30
26505;DHT22;19493;48.042;7.584;2023-04-03T11:16:16;14.10;56.50
26505;DHT22;19493;48.042;7.584;2023-04-03T11:18:50;13.50;55.90
26505;DHT22;19493;48.042;7.584;2023-04-03T11:21:23;12.90;59.40
26505;DHT22;19493;48.042;7.584;2023-04-03T11:23:51;13.10;58.80
26505;DHT22;19493;48.042;7.584;2023-04-03T11:26:22;12.80;59.10
26505;DHT22;19493;48.042;7.584;2023-04-03T11:28:53;12.80;61.40
26505;DHT22;19493;48.042;7.584;2023-04-03T11:31:34;12.80;59.80
26505;DHT22;19493;48.042;7.584;2023-04-03T11:34:22;12.80;60.20
26505;DHT22;19493;48.042;7.584;2023-04-03T11:36:56;12.50;59.60
26505;DHT22;19493;48.042;7.584;2023-04-03T11:39:30;12.30;61.30
26505;DHT22;19493;48.042;7.584;2023-04-03T11:42:14;12.10;60.80
26505;DHT22;19493;48.042;7.584;2023-04-03T11:44:41;12.10;63.70
26505;DHT22;19493;48.042;7.584;2023-04-03T11:47:12;12.30;61.50
26505;DHT22;19493;48.042;7.584;2023-04-03T11:49:58;12.40;62.40
26505;DHT22;19493;48.042;7.584;2023-04-03T12:05:56;12.70;61.80
26505;DHT22;19493;48.042;7.584;2023-04-03T12:16:42;14.80;58.00
26505;DHT22;19493;48.042;7.584;2023-04-03T12:31:58;13.90;55.30
26505;DHT22;19493;48.042;7.584;2023-04-03T12:35:10;12.80;58.60
26505;DHT22;19493;48.042;7.584;2023-04-03T12:46:02;12.50;59.10
26505;DHT22;19493;48.042;7.584;2023-04-03T12:48:31;12.10;60.00
26505;DHT22;19493;48.042;7.584;2023-04-03T12:50:59;11.80;62.00
26505;DHT22;19493;48.042;7.584;2023-04-03T12:53:27;12.00;60.80
26505;DHT22;19493;48.042;7.584;2023-04-03T12:55:56;11.90;61.30
26505;DHT22;19493;48.042;7.584;2023-04-03T12:58:27;12.20;61.10
26505;DHT22;19493;48.042;7.584;2023-04-03T13:03:26;12.90;58.20
26505;DHT22;19493;48.042;7.584;2023-04-03T13:05:54;13.30;58.20
26505;DHT22;19493;48.042;7.584;2023-04-03T13:08:22;13.50;58.10
26505;DHT22;19493;48.042;7.584;2023-04-03T13:11:05;13.60;57.50
26505;DHT22;19493;48.042;7.584;2023-04-03T13:13:32;13.60;58.70
26505;DHT22;19493;48.042;7.584;2023-04-03T13:15:57;13.30;57.60
26505;DHT22;19493;48.042;7.584;2023-04-03T13:18:27;13.00;58.20
26505;DHT22;19493;48.042;7.584;2023-04-03T13:20:56;12.80;60.30
26505;DHT22;19493;48.042;7.584;2023-04-03T13:23:22;12.60;59.50
26505;DHT22;19493;48.042;7.584;2023-04-03T13:25:50;12.50;59.10
26505;DHT22;19493;48.042;7.584;2023-04-03T13:28:20;12.20;60.90
26505;DHT22;19493;48.042;7.584;2023-04-03T13:33:29;11.60;59.80
26505;DHT22;19493;48.042;7.584;2023-04-03T13:36:08;11.70;60.90
26505;DHT22;19493;48.042;7.584;2023-04-03T13:38:36;11.80;62.10
26505;DHT22;19493;48.042;7.584;2023-04-03T13:41:05;12.00;62.10
26505;DHT22;19493;48.042;7.584;2023-04-03T13:43:46;12.10;61.40
26505;DHT22;19493;48.042;7.584;2023-04-03T13:48:43;12.00;60.60
26505;DHT22;19493;48.042;7.584;2023-04-03T13:53:47;11.70;59.80
26505;DHT22;19493;48.042;7.584;2023-04-03T13:59:06;11.90;60.30
26505;DHT22;19493;48.042;7.584;2023-04-03T14:01:42;11.70;60.20
26505;DHT22;19493;48.042;7.584;2023-04-03T14:04:19;11.70;62.70
26505;DHT22;19493;48.042;7.584;2023-04-03T14:06:46;11.80;61.20
26505;DHT22;19493;48.042;7.584;2023-04-03T14:09:12;11.50;60.30
26505;DHT22;19493;48.042;7.584;2023-04-03T14:11:38;11.40;61.70
26505;DHT22;19493;48.042;7.584;2023-04-03T14:14:14;11.30;62.70
26505;DHT22;19493;48.042;7.584;2023-04-03T14:16:43;11.20;63.10
26505;DHT22;19493;48.042;7.584;2023-04-03T14:19:21;11.00;64.20
26505;DHT22;19493;48.042;7.584;2023-04-03T14:21:47;10.50;62.80
26505;DHT22;19493;48.042;7.584;2023-04-03T14:24:13;10.20;63.60
26505;DHT22;19493;48.042;7.584;2023-04-03T14:26:39;10.30;65.90
26505;DHT22;19493;48.042;7.584;2023-04-03T14:29:04;10.40;63.90
26505;DHT22;19493;48.042;7.584;2023-04-03T14:31:31;10.50;62.80
26505;DHT22;19493;48.042;7.584;2023-04-03T14:33:56;10.40;64.20
26505;DHT22;19493;48.042;7.584;2023-04-03T14:36:27;10.30;64.70
26505;DHT22;19493;48.042;7.584;2023-04-03T14:38:53;10.20;65.80
26505;DHT22;19493;48.042;7.584;2023-04-03T14:41:22;10.30;66.00
26505;DHT22;19493;48.042;7.584;2023-04-03T14:43:49;10.10;64.30
26505;DHT22;19493;48.042;7.584;2023-04-03T14:46:31;10.10;65.40
26505;DHT22;19493;48.042;7.584;2023-04-03T14:48:58;10.10;66.50
26505;DHT22;19493;48.042;7.584;2023-04-03T14:51:24;10.30;65.70
26505;DHT22;19493;48.042;7.584;2023-04-03T14:53:50;10.40;66.10
26505;DHT22;19493;48.042;7.584;2023-04-03T14:56:23;10.40;66.30
26505;DHT22;19493;48.042;7.584;2023-04-03T14:58:59;10.50;66.50
26505;DHT22;19493;48.042;7.584;2023-04-03T15:01:26;10.50;64.40
26505;DHT22;19493;48.042;7.584;2023-04-03T15:03:52;10.50;64.60
26505;DHT22;19493;48.042;7.584;2023-04-03T15:06:18;10.50;65.20
26505;DHT22;19493;48.042;7.584;2023-04-03T15:08:47;10.30;65.00
26505;DHT22;19493;48.042;7.584;2023-04-03T15:11:13;10.20;64.00
26505;DHT22;19493;48.042;7.584;2023-04-03T15:13:40;10.00;64.50
26505;DHT22;19493;48.042;7.584;2023-04-03T15:16:18;10.10;64.40
26505;DHT22;19493;48.042;7.584;2023-04-03T15:18:45;10.00;63.60
26505;DHT22;19493;48.042;7.584;2023-04-03T15:21:11;9.90;62.70
26505;DHT22;19493;48.042;7.584;2023-04-03T15:23:37;9.90;64.80
26505;DHT22;19493;48.042;7.584;2023-04-03T15:26:03;9.70;63.80
26505;DHT22;19493;48.042;7.584;2023-04-03T15:28:38;9.70;65.80
26505;DHT22;19493;48.042;7.584;2023-04-03T15:31:05;9.60;65.60
26505;DHT22;19493;48.042;7.584;2023-04-03T15:33:32;9.40;64.70
26505;DHT22;19493;48.042;7.584;2023-04-03T15:35:59;9.20;65.80
26505;DHT22;19493;48.042;7.584;2023-04-03T15:38:25;9.10;65.80
26505;DHT22;19493;48.042;7.584;2023-04-03T15:40:51;9.10;66.20
26505;DHT22;19493;48.042;7.584;2023-04-03T15:43:16;9.10;66.90
26505;DHT22;19493;48.042;7.584;2023-04-03T15:45:43;9.00;66.10
26505;DHT22;19493;48.042;7.584;2023-04-03T15:48:10;9.00;66.90
26505;DHT22;19493;48.042;7.584;2023-04-03T15:50:36;9.00;67.50
26505;DHT22;19493;48.042;7.584;2023-04-03T15:53:02;9.10;68.20
26505;DHT22;19493;48.042;7.584;2023-04-03T15:55:30;9.10;67.50
26505;DHT22;19493;48.042;7.584;2023-04-03T15:57:56;9.10;69.40
26505;DHT22;19493;48.042;7.584;2023-04-03T16:00:23;9.20;68.60
26505;DHT22;19493;48.042;7.584;2023-04-03T16:02:52;9.10;68.40
26505;DHT22;19493;48.042;7.584;2023-04-03T16:05:18;9.00;68.80
26505;DHT22;19493;48.042;7.584;2023-04-03T16:07:45;8.80;68.60
26505;DHT22;19493;48.042;7.584;2023-04-03T16:10:12;8.70;68.40
26505;DHT22;19493;48.042;7.584;2023-04-03T16:12:38;8.70;68.80
26505;DHT22;19493;48.042;7.584;2023-04-03T16:15:04;8.70;69.30
26505;DHT22;19493;48.042;7.584;2023-04-03T16:17:32;8.80;68.50
26505;DHT22;19493;48.042;7.584;2023-04-03T16:19:58;8.80;66.00
26505;DHT22;19493;48.042;7.584;2023-04-03T16:22:26;8.90;65.50
26505;DHT22;19493;48.042;7.584;2023-04-03T16:24:52;8.90;66.10
26505;DHT22;19493;48.042;7.584;2023-04-03T16:27:18;9.00;65.30
26505;DHT22;19493;48.042;7.584;2023-04-03T16:29:43;9.00;66.00
26505;DHT22;19493;48.042;7.584;2023-04-03T16:32:09;9.00;66.60
26505;DHT22;19493;48.042;7.584;2023-04-03T16:34:35;8.90;66.20
26505;DHT22;19493;48.042;7.584;2023-04-03T16:37:00;8.70;66.80
26505;DHT22;19493;48.042;7.584;2023-04-03T16:39:26;8.60;68.70
26505;DHT22;19493;48.042;7.584;2023-04-03T16:41:52;8.50;68.30
26505;DHT22;19493;48.042;7.584;2023-04-03T16:44:18;8.40;67.90
26505;DHT22;19493;48.042;7.584;2023-04-03T16:46:44;8.30;69.10
26505;DHT22;19493;48.042;7.584;2023-04-03T16:49:10;8.30;69.10
26505;DHT22;19493;48.042;7.584;2023-04-03T16:51:35;8.20;68.50
26505;DHT22;19493;48.042;7.584;2023-04-03T16:54:01;8.20;68.90
26505;DHT22;19493;48.042;7.584;2023-04-03T16:56:26;8.10;67.40
26505;DHT22;19493;48.042;7.584;2023-04-03T16:58:53;8.00;67.40
26505;DHT22;19493;48.042;7.584;2023-04-03T17:01:20;8.00;67.10
26505;DHT22;19493;48.042;7.584;2023-04-03T17:03:46;8.00;66.20
26505;DHT22;19493;48.042;7.584;2023-04-03T17:06:15;7.90;66.60
26505;DHT22;19493;48.042;7.584;2023-04-03T17:08:43;7.90;68.40
26505;DHT22;19493;48.042;7.584;2023-04-03T17:11:08;7.80;69.30
26505;DHT22;19493;48.042;7.584;2023-04-03T17:13:34;7.80;70.00
26505;DHT22;19493;48.042;7.584;2023-04-03T17:16:01;7.70;69.30
26505;DHT22;19493;48.042;7.584;2023-04-03T17:18:30;7.70;69.10
26505;DHT22;19493;48.042;7.584;2023-04-03T17:20:56;7.70;69.40
26505;DHT22;19493;48.042;7.584;2023-04-03T17:23:23;7.70;68.40
26505;DHT22;19493;48.042;7.584;2023-04-03T17:25:49;7.60;69.00